KMGM/MGM METAR and TAF weather

Enter ICAO airport designator
Station Type Date Time Source
KMGM METAR 2019/12/08 00:53 UTC NOAA

KMGM 080053Z 11004KT 10SM OVC047 14/11 A3022 RMK AO2 SLP232 T01440106


Station Type Date Time Source
KMGM Decoded METAR 2019/12/08 00:53 UTC NOAA

MONTGOMERY DANNELLY FIELD, AL, United States (KMGM) 32-18N 86-24W 63M
Dec 07, 2019 - 07:53 PM EST / 2019.12.08 0053 UTC
Wind: from the ESE (110 degrees) at 5 MPH (4 KT):0
Visibility: 10 mile(s):0
Sky conditions: overcast
Temperature: 57.9 F (14.4 C)
Dew Point: 51.1 F (10.6 C)
Relative Humidity: 77%
Pressure (altimeter): 30.22 in. Hg (1023 hPa)
ob: KMGM 080053Z 11004KT 10SM OVC047 14/11 A3022 RMK AO2 SLP232 T01440106
cycle: 1

Station Type Date Time Source
KMGM TAF 2019/12/07 18:22 UTC NOAA

TAF KMGM 071720Z 0718/0818 04006KT P6SM SCT040
FM081300 10010G20KT P6SM VCSH OVC025

Example: see airport list